Time;durP1;ratioP1;P1;durP2;ratioP2;P2;SDS_P1;SDS_P2;PMS_P1;PMS_P2;Temp;Humidity;BMP_temperature;BMP_pressure;BME280_temperature;BME280_humidity;BME280_pressure;Samples;Min_cycle;Max_cycle;Signal;HPM_P1;HPM_P2
2022/08/18 00:02:07;;;;;;;36.70;30.20;;;18.20;99.90;;;;;;4995198;28;20681;-64
2022/08/18 00:04:35;;;;;;;37.10;30.33;;;18.20;99.90;;;;;;5008489;28;20275;-65
2022/08/18 00:07:00;;;;;;;40.30;32.00;;;18.20;99.90;;;;;;5014883;28;20176;-65
2022/08/18 00:09:26;;;;;;;41.20;31.50;;;18.20;99.90;;;;;;5014648;28;20180;-64
2022/08/18 00:11:52;;;;;;;36.43;29.97;;;18.10;99.90;;;;;;5014528;28;20270;-65
2022/08/18 00:14:19;;;;;;;32.10;28.47;;;18.10;99.90;;;;;;5014060;28;20827;-64
2022/08/18 00:16:45;;;;;;;39.43;32.83;;;18.10;99.90;;;;;;5014567;28;20179;-64
2022/08/18 00:19:11;;;;;;;41.40;31.97;;;18.10;99.90;;;;;;5014730;28;20599;-64
2022/08/18 00:21:36;;;;;;;42.23;31.77;;;18.10;99.90;;;;;;5014420;28;20681;-65
2022/08/18 00:24:03;;;;;;;41.43;32.83;;;18.10;99.90;;;;;;5013679;28;20527;-64
2022/08/18 00:26:29;;;;;;;44.83;33.17;;;18.00;99.90;;;;;;5014357;28;20180;-65
2022/08/18 00:28:55;;;;;;;43.10;34.20;;;18.00;99.90;;;;;;5014620;28;20180;-65
2022/08/18 00:31:21;;;;;;;45.53;34.87;;;17.90;99.90;;;;;;5014058;28;20188;-66
2022/08/18 00:33:46;;;;;;;44.87;33.57;;;17.90;99.90;;;;;;5014250;28;20208;-65
2022/08/18 00:36:12;;;;;;;42.47;34.50;;;18.00;99.90;;;;;;5014058;28;20262;-65
2022/08/18 00:38:38;;;;;;;44.63;33.63;;;18.00;99.90;;;;;;5014074;28;20217;-65
2022/08/18 00:41:05;;;;;;;46.43;33.47;;;18.00;99.90;;;;;;5014292;28;20627;-65
2022/08/18 00:43:40;;;;;;;47.40;34.07;;;18.00;99.90;;;;;;5013701;28;20212;-63
2022/08/18 00:46:15;;;;;;;48.93;34.80;;;17.90;99.90;;;;;;5013928;28;20183;-65
2022/08/18 00:48:41;;;;;;;45.27;34.43;;;17.90;99.90;;;;;;5014506;28;20191;-66
2022/08/18 00:51:14;;;;;;;47.53;34.83;;;17.80;99.90;;;;;;5013870;28;20184;-66
2022/08/18 00:53:46;;;;;;;43.20;33.73;;;17.70;99.90;;;;;;5013725;28;20556;-65
2022/08/18 00:56:21;;;;;;;50.60;36.80;;;17.70;99.90;;;;;;5013495;28;20180;-66
2022/08/18 00:58:54;;;;;;;47.40;38.10;;;17.70;99.90;;;;;;5012858;28;20605;-65
2022/08/18 01:01:23;;;;;;;52.50;35.73;;;17.70;99.90;;;;;;5013598;28;20569;-66
2022/08/18 01:03:57;;;;;;;56.77;38.63;;;17.80;99.90;;;;;;5012138;28;20172;-64
2022/08/18 01:06:33;;;;;;;44.67;34.63;;;17.80;99.90;;;;;;5013523;28;20207;-66
2022/08/18 01:08:59;;;;;;;52.73;37.20;;;17.70;99.90;;;;;;5014274;28;20573;-65
2022/08/18 01:11:24;;;;;;;50.40;37.80;;;17.70;99.90;;;;;;5013414;28;20184;-65
2022/08/18 01:13:52;;;;;;;52.03;37.20;;;17.70;99.90;;;;;;5013310;28;20682;-65
2022/08/18 01:22:02;;;;;;;63.80;41.43;;;17.60;99.90;;;;;;5013293;28;20242;-66
2022/08/18 01:27:18;;;;;;;61.53;41.10;;;17.60;99.90;;;;;;5013407;28;20187;-67
2022/08/18 01:29:46;;;;;;;58.00;41.43;;;17.60;99.90;;;;;;5013469;28;20641;-67
2022/08/18 01:32:19;;;;;;;52.83;36.10;;;17.50;99.90;;;;;;5012920;28;20299;-65
2022/08/18 01:34:46;;;;;;;60.03;40.43;;;17.50;99.90;;;;;;5013039;28;20212;-66
2022/08/18 01:37:13;;;;;;;61.40;40.27;;;17.40;99.90;;;;;;5013024;28;20525;-66
2022/08/18 01:39:39;;;;;;;65.13;40.97;;;17.40;99.90;;;;;;5013197;28;20200;-66
2022/08/18 01:42:05;;;;;;;65.30;42.50;;;17.40;99.90;;;;;;5012482;28;20238;-64
2022/08/18 01:44:32;;;;;;;61.93;43.10;;;17.30;99.90;;;;;;5012801;28;20180;-66
2022/08/18 01:46:58;;;;;;;59.83;42.83;;;17.30;99.90;;;;;;5012538;28;20180;-66
2022/08/18 01:49:23;;;;;;;61.70;42.73;;;17.40;99.90;;;;;;5012589;28;20664;-66
2022/08/18 01:51:51;;;;;;;61.13;41.57;;;17.40;99.90;;;;;;5012642;28;20206;-65
2022/08/18 01:54:17;;;;;;;66.03;40.90;;;17.30;99.90;;;;;;5012360;28;20192;-66
2022/08/18 01:56:42;;;;;;;66.13;43.43;;;17.20;99.90;;;;;;5012714;28;20222;-66
2022/08/18 01:59:13;;;;;;;61.87;43.73;;;17.20;99.90;;;;;;5012966;28;20180;-65
2022/08/18 02:01:40;;;;;;;70.90;44.43;;;17.20;99.90;;;;;;5012771;28;20200;-66
2022/08/18 02:04:07;;;;;;;77.60;48.03;;;17.20;99.90;;;;;;5012381;28;20187;-66
2022/08/18 02:06:33;;;;;;;75.90;46.87;;;17.20;99.90;;;;;;5012490;28;20191;-66
2022/08/18 02:08:59;;;;;;;67.00;42.67;;;17.20;99.90;;;;;;5012777;28;20176;-66
2022/08/18 02:11:24;;;;;;;75.33;46.00;;;17.10;99.90;;;;;;5011906;28;20207;-66
2022/08/18 02:13:50;;;;;;;78.17;45.80;;;17.10;99.90;;;;;;5012235;28;20259;-66
2022/08/18 02:16:16;;;;;;;82.80;48.33;;;17.00;99.90;;;;;;5011799;28;20183;-66
2022/08/18 02:18:42;;;;;;;89.13;50.13;;;17.00;99.90;;;;;;5012323;28;20284;-66
2022/08/18 02:21:13;;;;;;;79.57;48.10;;;17.00;99.90;;;;;;5012467;28;20668;-64
2022/08/18 02:23:41;;;;;;;76.40;46.00;;;17.00;99.90;;;;;;5011221;28;20172;-65
2022/08/18 02:26:10;;;;;;;81.87;49.47;;;17.00;99.90;;;;;;5011850;28;20615;-65
2022/08/18 02:28:36;;;;;;;91.93;52.30;;;17.10;99.90;;;;;;5012148;28;20180;-65
2022/08/18 02:31:23;;;;;;;88.77;50.97;;;17.20;99.90;;;;;;5012566;28;20709;-64
2022/08/18 02:33:48;;;;;;;94.03;51.73;;;17.20;99.90;;;;;;5011711;28;20655;-63
2022/08/18 02:36:15;;;;;;;89.87;50.43;;;17.30;99.90;;;;;;5012238;28;20199;-64
2022/08/18 02:38:41;;;;;;;101.27;53.07;;;17.30;99.90;;;;;;5011847;28;20176;-65
2022/08/18 02:41:10;;;;;;;112.83;55.87;;;17.30;99.90;;;;;;5012083;28;20179;-64
2022/08/18 02:43:37;;;;;;;103.67;54.87;;;17.40;99.90;;;;;;5011635;28;20235;-64
2022/08/18 02:46:04;;;;;;;116.17;54.43;;;17.50;99.90;;;;;;5012003;28;20169;-65
2022/08/18 02:48:36;;;;;;;101.27;53.53;;;17.50;99.90;;;;;;5011915;28;20203;-64
2022/08/18 02:51:08;;;;;;;87.80;52.70;;;17.50;99.90;;;;;;5012352;28;20188;-65
2022/08/18 02:53:35;;;;;;;103.90;54.87;;;17.50;99.90;;;;;;5011451;28;20210;-65
2022/08/18 02:56:24;;;;;;;106.13;53.37;;;17.50;99.90;;;;;;5011812;28;20173;-64
2022/08/18 02:58:53;;;;;;;102.70;54.17;;;17.50;99.90;;;;;;5011822;28;20175;-64
2022/08/18 03:01:21;;;;;;;115.07;53.83;;;17.50;99.90;;;;;;4992173;28;20192;-64
2022/08/18 03:03:48;;;;;;;113.17;55.60;;;17.50;99.90;;;;;;5005252;28;20176;-65
2022/08/18 03:06:13;;;;;;;116.30;57.80;;;17.50;99.90;;;;;;5011608;28;20666;-65
2022/08/18 03:08:39;;;;;;;111.43;57.03;;;17.50;99.90;;;;;;5011522;28;20210;-65
2022/08/18 03:11:04;;;;;;;102.07;55.50;;;17.60;99.90;;;;;;5011886;28;20184;-63
2022/08/18 03:13:30;;;;;;;119.63;54.90;;;17.60;99.90;;;;;;5009658;28;20219;-64
2022/08/18 03:15:56;;;;;;;107.97;54.00;;;17.70;99.90;;;;;;5011713;28;20194;-65
2022/08/18 03:18:22;;;;;;;100.13;50.00;;;17.70;99.90;;;;;;5011725;28;20234;-64
2022/08/18 03:20:49;;;;;;;103.13;50.93;;;17.80;99.90;;;;;;5011848;28;20201;-65
2022/08/18 03:23:15;;;;;;;103.23;50.57;;;17.90;99.90;;;;;;5013517;28;20200;-64
2022/08/18 03:25:47;;;;;;;100.83;52.53;;;17.90;99.90;;;;;;5015428;28;20181;-64
2022/08/18 03:28:14;;;;;;;102.57;53.67;;;17.90;99.90;;;;;;5015142;28;20214;-63
2022/08/18 03:30:40;;;;;;;92.83;50.03;;;17.80;99.90;;;;;;5015486;28;20191;-65
2022/08/18 03:33:06;;;;;;;111.13;52.73;;;17.90;99.90;;;;;;5015112;28;20196;-65
2022/08/18 03:35:35;;;;;;;109.50;52.60;;;17.70;99.90;;;;;;5013786;28;20816;-65
2022/08/18 03:38:02;;;;;;;103.00;52.33;;;17.90;99.90;;;;;;5015123;28;20288;-64
2022/08/18 03:40:27;;;;;;;90.80;49.47;;;17.80;99.90;;;;;;5015494;28;20180;-63
2022/08/18 03:42:53;;;;;;;110.40;52.37;;;17.70;99.90;;;;;;5015055;28;20215;-63
2022/08/18 03:45:19;;;;;;;108.17;53.40;;;17.70;99.90;;;;;;5014991;28;20659;-64
2022/08/18 03:47:44;;;;;;;114.90;53.03;;;17.80;99.90;;;;;;5015336;28;20187;-64
2022/08/18 03:50:11;;;;;;;108.23;52.37;;;17.80;99.90;;;;;;5014750;28;20184;-66
2022/08/18 03:52:37;;;;;;;111.87;52.63;;;17.80;99.90;;;;;;5015135;28;20562;-64
2022/08/18 03:55:04;;;;;;;111.37;54.83;;;17.80;99.90;;;;;;5014738;28;20282;-65
2022/08/18 03:57:32;;;;;;;104.10;51.83;;;17.90;99.90;;;;;;5015159;28;20657;-63
2022/08/18 03:59:59;;;;;;;105.90;55.77;;;18.00;99.90;;;;;;5014837;28;20259;-64
2022/08/18 04:02:25;;;;;;;106.60;56.50;;;18.10;99.90;;;;;;4995292;28;20292;-65
2022/08/18 04:04:50;;;;;;;103.90;52.97;;;18.10;99.90;;;;;;4996983;28;20259;-64
2022/08/18 04:07:16;;;;;;;108.70;54.17;;;18.20;99.90;;;;;;5014586;28;20638;-65
2022/08/18 04:09:42;;;;;;;114.77;55.20;;;18.20;99.90;;;;;;5014699;28;20219;-64
2022/08/18 04:12:14;;;;;;;120.80;53.37;;;18.20;99.90;;;;;;5014779;28;20200;-64
2022/08/18 04:14:41;;;;;;;108.20;55.17;;;18.20;99.90;;;;;;5014234;28;20212;-63
2022/08/18 04:17:08;;;;;;;109.47;52.90;;;18.30;99.90;;;;;;5014730;28;20191;-63
2022/08/18 04:19:34;;;;;;;107.10;51.83;;;18.30;99.90;;;;;;5014422;28;20239;-65
2022/08/18 04:22:04;;;;;;;109.13;52.37;;;18.30;99.90;;;;;;5014138;28;20263;-65
2022/08/18 04:24:30;;;;;;;105.63;50.67;;;18.40;99.90;;;;;;5013641;28;20180;-65
2022/08/18 04:26:58;;;;;;;97.90;51.17;;;18.40;99.90;;;;;;5014333;28;20184;-66
2022/08/18 04:29:23;;;;;;;99.57;50.17;;;18.50;99.90;;;;;;5014457;28;20184;-64
2022/08/18 04:31:50;;;;;;;95.43;48.07;;;18.50;99.90;;;;;;5014193;28;20206;-66
2022/08/18 04:34:19;;;;;;;91.63;46.00;;;18.50;99.90;;;;;;4994338;28;20246;-66
2022/08/18 04:36:45;;;;;;;98.63;48.93;;;18.40;99.90;;;;;;5013644;28;20172;-66
2022/08/18 04:39:12;;;;;;;101.87;49.57;;;18.40;99.90;;;;;;5014178;28;20212;-65
2022/08/18 04:41:39;;;;;;;96.03;47.37;;;18.40;99.90;;;;;;5014420;28;20467;-66
2022/08/18 04:44:07;;;;;;;97.80;48.13;;;18.40;99.90;;;;;;5089350;23;20237;-66
2022/08/18 04:46:41;;;;;;;89.90;47.13;;;18.40;99.90;;;;;;5073927;28;20647;-66
2022/08/18 04:49:09;;;;;;;91.53;46.13;;;18.40;99.90;;;;;;5071564;28;20178;-67
2022/08/18 04:51:35;;;;;;;80.40;43.37;;;18.40;99.90;;;;;;5073944;28;20165;-66
2022/08/18 04:54:01;;;;;;;84.63;45.20;;;18.50;99.90;;;;;;5072897;28;20255;-67
2022/08/18 04:56:32;;;;;;;86.50;44.50;;;18.50;99.90;;;;;;5073489;28;20170;-66
2022/08/18 04:59:02;;;;;;;72.53;41.63;;;18.60;99.90;;;;;;5072176;28;20590;-66
2022/08/18 05:01:38;;;;;;;75.27;42.00;;;18.60;99.90;;;;;;5072061;28;20695;-66
2022/08/18 05:04:04;;;;;;;76.70;41.50;;;18.60;99.90;;;;;;5072501;28;20197;-66
2022/08/18 05:06:31;;;;;;;76.80;40.57;;;18.60;99.90;;;;;;5072369;28;20167;-66
2022/08/18 05:09:01;;;;;;;66.20;37.40;;;18.70;99.90;;;;;;5073121;28;20204;-66
2022/08/18 05:11:30;;;;;;;60.50;36.33;;;18.80;99.90;;;;;;5073392;28;20166;-66
2022/08/18 05:13:56;;;;;;;58.10;35.70;;;18.80;99.90;;;;;;5072719;28;20201;-66
2022/08/18 05:16:23;;;;;;;50.77;33.20;;;19.00;99.90;;;;;;5071753;28;20258;-66
2022/08/18 05:18:52;;;;;;;61.07;35.23;;;19.00;99.90;;;;;;5072967;28;20286;-66
2022/08/18 05:21:18;;;;;;;59.23;36.17;;;19.00;99.90;;;;;;5071552;28;20177;-66
2022/08/18 05:23:47;;;;;;;51.43;32.63;;;19.00;99.90;;;;;;5071598;28;20209;-66
2022/08/18 05:26:13;;;;;;;55.77;34.33;;;19.00;99.90;;;;;;5071634;28;20618;-66
2022/08/18 05:28:43;;;;;;;59.90;35.87;;;19.00;99.90;;;;;;5072641;28;20182;-66
2022/08/18 05:31:17;;;;;;;54.20;33.73;;;19.10;99.90;;;;;;5071408;28;20651;-66
2022/08/18 05:33:44;;;;;;;54.20;33.13;;;19.00;99.90;;;;;;5071220;28;20205;-66
2022/08/18 05:36:50;;;;;;;50.20;33.27;;;19.20;99.90;;;;;;5072752;28;20216;-66
2022/08/18 05:39:16;;;;;;;50.80;33.17;;;19.20;99.90;;;;;;5072548;28;20166;-66
2022/08/18 05:41:45;;;;;;;50.40;32.13;;;19.30;99.90;;;;;;5071258;28;20632;-66
2022/08/18 05:44:19;;;;;;;53.20;32.83;;;19.30;99.90;;;;;;5071676;28;20214;-66
2022/08/18 05:46:51;;;;;;;56.07;33.60;;;19.30;99.90;;;;;;5072419;28;20205;-66
2022/08/18 05:49:18;;;;;;;55.73;33.47;;;19.40;99.90;;;;;;5071620;28;20178;-67
2022/08/18 05:52:05;;;;;;;50.57;33.03;;;19.30;99.90;;;;;;5072383;28;20206;-66
2022/08/18 05:57:31;;;;;;;49.80;32.77;;;19.30;99.90;;;;;;5071700;28;20545;-66
2022/08/18 05:59:57;;;;;;;51.43;33.60;;;19.20;99.90;;;;;;5069418;28;20174;-67
2022/08/18 06:02:32;;;;;;;46.40;31.97;;;19.30;99.90;;;;;;5082858;28;20204;-66
2022/08/18 06:05:11;;;;;;;48.27;30.90;;;19.40;99.90;;;;;;5090844;28;20713;-66
2022/08/18 06:07:41;;;;;;;47.23;30.80;;;19.40;99.90;;;;;;5076261;28;20704;-66
2022/08/18 06:10:08;;;;;;;48.90;31.70;;;19.40;99.90;;;;;;5070151;28;20185;-65
2022/08/18 06:12:40;;;;;;;45.00;30.97;;;19.30;99.90;;;;;;5070348;28;20206;-66
2022/08/18 06:15:12;;;;;;;49.17;30.50;;;19.30;99.90;;;;;;5069965;28;20208;-66
2022/08/18 06:18:05;;;;;;;50.90;31.10;;;19.40;99.90;;;;;;5070603;28;20231;-66
2022/08/18 06:20:53;;;;;;;48.17;30.17;;;19.50;99.90;;;;;;5070212;28;20174;-66
2022/08/18 06:23:31;;;;;;;47.10;31.50;;;19.60;99.90;;;;;;5070203;28;20213;-66
2022/08/18 06:26:12;;;;;;;45.90;31.47;;;19.60;99.90;;;;;;5071939;28;20166;-66
2022/08/18 06:29:05;;;;;;;44.80;31.33;;;19.60;99.90;;;;;;5071825;28;20193;-66
2022/08/18 06:31:46;;;;;;;50.17;32.93;;;19.50;99.90;;;;;;5070031;28;20174;-66
2022/08/18 06:34:27;;;;;;;49.40;31.37;;;19.50;99.90;;;;;;5071131;28;20206;-66
2022/08/18 06:37:01;;;;;;;53.33;32.57;;;19.60;99.90;;;;;;5070498;28;20178;-66
2022/08/18 06:39:46;;;;;;;47.90;32.80;;;19.70;99.90;;;;;;5071469;28;20259;-66
2022/08/18 06:42:14;;;;;;;49.87;32.67;;;19.90;99.90;;;;;;5070336;28;20231;-66
2022/08/18 06:44:49;;;;;;;46.57;32.17;;;20.00;99.90;;;;;;5069829;28;20183;-66
2022/08/18 06:47:43;;;;;;;45.67;33.73;;;20.10;99.90;;;;;;5070126;28;20174;-66
2022/08/18 06:50:24;;;;;;;40.27;30.77;;;20.10;99.90;;;;;;5050106;28;20186;-66
2022/08/18 06:53:02;;;;;;;48.53;31.53;;;20.10;99.90;;;;;;5054535;28;20189;-66
2022/08/18 06:55:41;;;;;;;46.20;30.87;;;20.10;99.90;;;;;;5070968;28;20278;-67
2022/08/18 06:58:16;;;;;;;40.13;28.30;;;20.20;99.90;;;;;;5071084;28;20650;-66
2022/08/18 07:00:50;;;;;;;44.73;30.47;;;20.20;99.90;;;;;;5070060;28;20253;-66
2022/08/18 07:03:20;;;;;;;41.00;27.03;;;20.10;99.90;;;;;;5070987;28;20228;-66
2022/08/18 07:06:04;;;;;;;44.80;30.80;;;20.10;99.90;;;;;;5071348;28;20193;-66
2022/08/18 07:08:32;;;;;;;45.37;29.77;;;20.20;99.90;;;;;;5071187;28;20181;-66
2022/08/18 07:11:25;;;;;;;42.70;34.13;;;20.30;99.90;;;;;;5071063;28;20253;-66
2022/08/18 07:13:58;;;;;;;39.57;29.33;;;20.40;99.90;;;;;;5069515;28;20202;-66
2022/08/18 07:16:30;;;;;;;43.27;32.67;;;20.50;99.90;;;;;;5070930;28;20579;-66
2022/08/18 07:19:29;;;;;;;43.77;28.90;;;20.60;99.90;;;;;;5069767;28;20181;-66
2022/08/18 07:22:03;;;;;;;41.63;27.67;;;20.60;99.90;;;;;;5058341;28;20190;-66
2022/08/18 07:24:32;;;;;;;42.60;27.53;;;20.60;99.90;;;;;;5070779;28;20702;-66
2022/08/18 07:27:03;;;;;;;41.20;30.77;;;20.50;99.90;;;;;;5069654;28;20544;-66
2022/08/18 07:29:32;;;;;;;39.77;28.90;;;20.50;99.90;;;;;;5069976;28;20539;-66
2022/08/18 07:32:03;;;;;;;43.93;32.00;;;20.50;99.90;;;;;;5069536;28;20182;-66
2022/08/18 07:34:35;;;;;;;41.83;31.40;;;20.40;99.90;;;;;;5068782;28;20216;-66
2022/08/18 07:37:06;;;;;;;47.33;32.53;;;20.20;99.90;;;;;;5070995;28;20179;-66
2022/08/18 07:39:57;;;;;;;41.63;28.23;;;20.10;99.90;;;;;;5069526;28;20193;-66
2022/08/18 07:42:31;;;;;;;38.80;27.70;;;20.10;99.90;;;;;;5069358;28;20698;-66
2022/08/18 07:45:25;;;;;;;44.27;29.53;;;20.10;99.90;;;;;;5070444;28;20178;-66
2022/08/18 07:48:03;;;;;;;46.17;28.27;;;20.10;99.90;;;;;;5071089;28;20177;-66
2022/08/18 07:50:37;;;;;;;41.67;27.53;;;20.00;99.90;;;;;;5069490;28;20273;-66
2022/08/18 07:53:24;;;;;;;41.20;28.40;;;19.90;99.90;;;;;;5070874;28;20186;-66
2022/08/18 07:55:58;;;;;;;44.10;29.37;;;19.80;99.90;;;;;;5070739;28;20174;-66
2022/08/18 07:58:49;;;;;;;46.50;29.30;;;19.80;99.90;;;;;;5069220;28;20261;-66
2022/08/18 08:01:48;;;;;;;45.73;30.97;;;19.70;99.90;;;;;;5069396;28;20178;-65
2022/08/18 08:04:29;;;;;;;42.77;30.20;;;19.90;99.90;;;;;;5067895;28;20206;-66
2022/08/18 08:07:15;;;;;;;43.97;29.80;;;20.00;99.90;;;;;;5071043;28;20166;-66
2022/08/18 08:10:00;;;;;;;43.30;28.73;;;20.10;99.90;;;;;;5072996;28;20182;-66
2022/08/18 08:12:29;;;;;;;44.27;29.20;;;20.20;99.90;;;;;;5085259;28;20205;-66
2022/08/18 08:15:02;;;;;;;48.40;31.60;;;20.20;99.90;;;;;;5075347;28;20213;-65
2022/08/18 08:17:59;;;;;;;43.93;30.37;;;20.20;99.90;;;;;;5072412;28;20189;-66
2022/08/18 08:20:40;;;;;;;41.63;28.13;;;20.10;99.90;;;;;;5072460;28;20381;-66
2022/08/18 08:23:17;;;;;;;45.17;27.40;;;20.20;99.90;;;;;;5072105;28;20194;-66
2022/08/18 08:26:04;;;;;;;43.50;28.37;;;20.30;99.90;;;;;;5074061;28;20212;-66
2022/08/18 08:29:02;;;;;;;45.20;28.17;;;20.40;99.90;;;;;;5054158;28;20265;-66
2022/08/18 08:31:38;;;;;;;38.47;27.50;;;20.50;99.90;;;;;;5017559;28;20197;-66
2022/08/18 08:34:28;;;;;;;40.87;29.47;;;20.50;99.90;;;;;;5073556;28;20193;-66
2022/08/18 08:37:05;;;;;;;43.97;32.53;;;20.50;99.90;;;;;;5064444;28;20227;-66
2022/08/18 08:39:56;;;;;;;37.37;27.97;;;20.70;99.90;;;;;;5072429;28;20556;-66
2022/08/18 08:42:44;;;;;;;38.07;27.97;;;20.80;99.90;;;;;;5073581;28;20259;-66
2022/08/18 08:45:19;;;;;;;35.47;26.57;;;21.00;99.90;;;;;;5072025;28;20174;-66
2022/08/18 08:48:03;;;;;;;43.67;39.20;;;21.00;99.90;;;;;;5073355;28;20178;-66
2022/08/18 08:50:35;;;;;;;41.10;29.97;;;21.10;99.90;;;;;;5073430;28;20178;-66
2022/08/18 08:53:12;;;;;;;37.17;32.40;;;21.10;99.90;;;;;;5073777;28;20212;-66
2022/08/18 08:55:44;;;;;;;37.27;28.70;;;21.10;99.90;;;;;;5073383;28;20204;-67
2022/08/18 08:58:29;;;;;;;40.97;27.70;;;21.10;99.90;;;;;;5072291;28;20175;-66
2022/08/18 09:00:56;;;;;;;39.17;33.03;;;21.20;99.90;;;;;;5081035;28;20268;-66
2022/08/18 09:03:30;;;;;;;33.63;26.83;;;21.20;99.90;;;;;;5093343;28;20604;-67
2022/08/18 09:06:13;;;;;;;39.17;28.50;;;21.30;99.90;;;;;;5073565;28;20176;-67
2022/08/18 09:09:03;;;;;;;33.37;28.90;;;21.30;99.90;;;;;;5071784;28;20219;-67
2022/08/18 09:11:41;;;;;;;36.27;32.17;;;21.30;99.90;;;;;;5071932;28;20673;-66
2022/08/18 09:14:14;;;;;;;38.53;28.43;;;21.40;99.90;;;;;;5072356;28;20194;-66
2022/08/18 09:16:48;;;;;;;34.93;31.03;;;21.50;99.90;;;;;;5073201;28;20208;-66
2022/08/18 09:19:26;;;;;;;38.60;28.17;;;21.60;99.90;;;;;;5070607;28;20587;-66
2022/08/18 09:22:06;;;;;;;32.10;25.95;;;21.70;99.90;;;;;;5071862;28;20173;-66
2022/08/18 09:24:50;;;;;;;31.47;25.77;;;21.80;99.90;;;;;;5072267;28;20178;-67
2022/08/18 09:27:40;;;;;;;32.50;26.33;;;21.80;99.90;;;;;;5071629;28;20190;-67
2022/08/18 09:30:07;;;;;;;34.47;27.70;;;21.80;99.90;;;;;;5071244;28;20619;-66
2022/08/18 09:33:14;;;;;;;29.07;24.27;;;21.90;99.90;;;;;;5070502;28;20340;-66
2022/08/18 09:35:42;;;;;;;29.88;23.88;;;22.10;99.90;;;;;;5064483;28;20221;-66
2022/08/18 09:41:33;;;;;;;31.98;25.05;;;22.50;99.90;;;;;;5072912;28;20220;-66
2022/08/18 09:44:10;;;;;;;30.08;24.58;;;22.70;99.90;;;;;;5070749;28;20228;-66
2022/08/18 09:46:41;;;;;;;29.40;21.35;;;23.10;99.90;;;;;;5072500;28;20685;-66
2022/08/18 09:49:25;;;;;;;27.63;20.58;;;23.40;99.90;;;;;;5072258;28;20173;-66
2022/08/18 09:52:17;;;;;;;27.33;22.08;;;23.90;99.90;;;;;;5071172;28;20174;-67
2022/08/18 09:54:57;;;;;;;24.98;22.08;;;24.30;99.90;;;;;;5071858;28;20706;-67
2022/08/18 09:57:31;;;;;;;25.60;20.15;;;24.70;99.90;;;;;;5070902;28;20182;-66
2022/08/18 10:00:03;;;;;;;22.10;18.42;;;25.10;99.90;;;;;;5070976;28;20181;-67
2022/08/18 10:02:28;;;;;;;26.10;18.63;;;25.80;99.90;;;;;;5071523;28;20194;-67
2022/08/18 10:05:17;;;;;;;20.20;18.10;;;26.50;99.90;;;;;;5070792;28;20200;-67
2022/08/18 10:08:00;;;;;;;23.92;19.75;;;27.30;99.90;;;;;;5072026;28;20173;-67
2022/08/18 10:10:50;;;;;;;23.13;20.63;;;28.00;99.90;;;;;;5070834;28;20186;-67
2022/08/18 10:13:32;;;;;;;23.85;21.40;;;28.30;99.90;;;;;;5052135;28;20586;-67
2022/08/18 10:16:09;;;;;;;23.58;19.20;;;28.40;99.90;;;;;;5052177;28;20689;-67
2022/08/18 10:18:44;;;;;;;22.75;19.58;;;28.60;99.90;;;;;;5070769;28;20458;-67
2022/08/18 10:21:29;;;;;;;23.90;21.55;;;28.40;99.90;;;;;;5071716;28;20246;-67
2022/08/18 10:24:03;;;;;;;26.17;20.50;;;27.90;99.90;;;;;;5070299;28;20220;-67
2022/08/18 10:26:29;;;;;;;20.92;16.48;;;27.50;99.90;;;;;;5070588;28;20161;-67
2022/08/18 10:28:59;;;;;;;19.23;16.30;;;27.40;99.90;;;;;;5072045;28;20663;-67
2022/08/18 10:31:30;;;;;;;20.02;17.98;;;27.50;99.90;;;;;;5071323;28;20178;-67
2022/08/18 10:34:04;;;;;;;20.73;18.55;;;27.80;99.90;;;;;;5070202;28;20220;-67
2022/08/18 10:36:38;;;;;;;20.45;18.33;;;27.80;99.90;;;;;;5070119;28;20242;-67
2022/08/18 10:39:09;;;;;;;20.50;18.40;;;27.50;99.90;;;;;;5070482;28;20308;-66
2022/08/18 10:41:37;;;;;;;23.77;17.10;;;27.60;99.90;;;;;;5070107;28;21835;-67
2022/08/18 10:44:05;;;;;;;22.67;20.33;;;27.70;99.90;;;;;;5065690;22;20231;-66
2022/08/18 10:46:40;;;;;;;24.52;18.10;;;27.60;99.90;;;;;;5031664;28;20171;-66
2022/08/18 10:49:21;;;;;;;19.23;17.23;;;27.40;99.90;;;;;;5031792;28;20535;-66
2022/08/18 10:52:05;;;;;;;22.05;19.85;;;27.30;99.90;;;;;;5031886;28;20175;-65
2022/08/18 10:54:52;;;;;;;18.30;16.50;;;26.90;99.90;;;;;;5029944;28;20707;-63
2022/08/18 10:57:26;;;;;;;17.98;16.15;;;27.00;99.90;;;;;;5031461;28;20187;-63
2022/08/18 10:59:53;;;;;;;19.90;18.00;;;26.90;99.90;;;;;;5031678;28;20167;-66
2022/08/18 11:02:36;;;;;;;18.50;16.52;;;27.20;99.90;;;;;;5031005;28;20167;-64
2022/08/18 11:05:08;;;;;;;17.08;15.38;;;27.50;99.90;;;;;;5031369;28;20171;-65
2022/08/18 11:07:34;;;;;;;15.77;14.23;;;27.50;99.90;;;;;;5031258;28;20685;-64
2022/08/18 11:10:16;;;;;;;15.07;13.65;;;27.90;99.90;;;;;;5031677;28;20204;-65
2022/08/18 11:12:42;;;;;;;13.45;12.05;;;28.20;99.90;;;;;;5029943;28;20207;-65
2022/08/18 11:15:21;;;;;;;16.27;14.40;;;28.50;99.90;;;;;;5044900;28;20299;-65
2022/08/18 11:17:59;;;;;;;17.25;15.48;;;28.90;99.90;;;;;;5043349;28;20191;-65
2022/08/18 11:20:30;;;;;;;18.15;15.85;;;28.70;99.90;;;;;;5031493;28;20192;-64
2022/08/18 11:22:59;;;;;;;21.35;19.08;;;28.40;99.90;;;;;;5030428;28;20286;-65
2022/08/18 11:25:32;;;;;;;20.25;18.10;;;28.10;99.90;;;;;;5031093;28;20673;-64
2022/08/18 11:27:59;;;;;;;19.20;17.15;;;27.70;99.90;;;;;;5030943;28;20191;-65
2022/08/18 11:30:29;;;;;;;17.45;15.57;;;27.40;99.90;;;;;;5029934;28;20468;-65
2022/08/18 11:32:55;;;;;;;16.55;14.98;;;27.40;99.90;;;;;;5031040;28;20566;-65
2022/08/18 11:35:29;;;;;;;16.10;14.27;;;27.40;99.90;;;;;;5030844;28;20207;-65
2022/08/18 11:37:59;;;;;;;14.18;12.65;;;27.50;99.90;;;;;;5031112;28;20175;-64
2022/08/18 11:40:38;;;;;;;12.75;11.55;;;27.60;99.90;;;;;;5030882;28;20716;-66
2022/08/18 11:43:26;;;;;;;13.48;11.00;;;27.80;99.90;;;;;;5031763;28;20568;-65
2022/08/18 11:46:23;;;;;;;11.00;9.80;;;28.00;99.90;;;;;;5035412;28;20633;-65
2022/08/18 11:48:49;;;;;;;11.25;10.07;;;27.80;99.90;;;;;;5034681;28;20183;-65
2022/08/18 11:51:16;;;;;;;10.73;9.73;;;27.60;99.90;;;;;;5034682;28;20270;-65
2022/08/18 11:53:48;;;;;;;9.65;8.85;;;27.50;99.90;;;;;;5034512;28;20442;-65
2022/08/18 11:56:13;;;;;;;9.75;8.82;;;27.80;99.90;;;;;;5034622;28;20175;-65
2022/08/18 11:58:44;;;;;;;9.52;8.50;;;28.10;99.90;;;;;;5034714;28;20168;-65
2022/08/18 12:01:31;;;;;;;9.27;8.57;;;28.40;99.90;;;;;;5034366;28;20241;-65
2022/08/18 12:04:13;;;;;;;10.23;9.23;;;28.40;99.90;;;;;;5033762;28;20203;-65
2022/08/18 12:06:59;;;;;;;8.77;7.93;;;28.20;99.90;;;;;;5034392;28;20716;-65
2022/08/18 12:09:33;;;;;;;11.10;10.20;;;28.50;99.90;;;;;;5034627;28;20237;-65
2022/08/18 12:12:15;;;;;;;12.43;11.45;;;28.80;99.90;;;;;;5034402;28;20183;-65
2022/08/18 12:14:55;;;;;;;12.70;11.50;;;29.00;99.90;;;;;;5034552;28;20196;-65
2022/08/18 12:17:21;;;;;;;12.85;11.55;;;29.20;99.90;;;;;;5014699;28;20176;-64
2022/08/18 12:19:47;;;;;;;13.40;10.98;;;29.30;99.90;;;;;;5023241;28;20194;-65
2022/08/18 12:22:19;;;;;;;13.82;9.75;;;29.70;99.90;;;;;;5034299;28;20176;-65
2022/08/18 12:24:45;;;;;;;9.40;8.60;;;29.90;99.90;;;;;;5033841;28;20194;-66
2022/08/18 12:27:16;;;;;;;11.23;10.18;;;30.00;99.90;;;;;;5034249;28;20258;-65
2022/08/18 12:29:42;;;;;;;10.05;9.25;;;30.30;99.90;;;;;;5034163;28;20211;-64
2022/08/18 12:32:08;;;;;;;10.65;9.55;;;30.00;99.90;;;;;;5034152;28;20657;-64
2022/08/18 12:34:34;;;;;;;10.40;9.35;;;29.80;99.90;;;;;;5033405;28;20290;-65
2022/08/18 12:37:00;;;;;;;10.95;9.95;;;29.80;99.90;;;;;;5033934;28;20202;-64
2022/08/18 12:39:26;;;;;;;10.70;9.55;;;29.80;99.90;;;;;;5033766;28;20207;-65
2022/08/18 12:41:52;;;;;;;12.95;11.65;;;29.60;99.90;;;;;;5034258;28;20195;-64
2022/08/18 12:44:17;;;;;;;11.00;10.00;;;29.50;99.90;;;;;;5046515;28;20691;-65
2022/08/18 12:46:43;;;;;;;11.57;10.57;;;29.40;99.90;;;;;;5033957;28;20262;-65
2022/08/18 12:49:18;;;;;;;10.82;9.93;;;29.30;99.90;;;;;;5033693;28;20505;-64
2022/08/18 12:51:44;;;;;;;10.85;9.95;;;29.40;99.90;;;;;;5034083;28;20541;-65
2022/08/18 12:54:10;;;;;;;10.82;9.75;;;29.30;99.90;;;;;;5032731;28;20218;-65
2022/08/18 12:56:36;;;;;;;11.93;9.80;;;29.20;99.90;;;;;;5033895;28;20258;-65
2022/08/18 12:59:04;;;;;;;11.38;10.25;;;28.90;99.90;;;;;;5033483;28;20649;-64
2022/08/18 13:01:31;;;;;;;10.10;9.20;;;28.50;99.90;;;;;;5033636;28;20176;-64
2022/08/18 13:03:58;;;;;;;9.70;8.80;;;28.40;99.90;;;;;;5032984;28;20607;-65
2022/08/18 13:06:24;;;;;;;10.32;9.43;;;28.60;99.90;;;;;;5033471;28;20187;-65
2022/08/18 13:08:50;;;;;;;9.38;8.57;;;29.20;99.90;;;;;;5033264;28;20179;-65